sensor_id;sensor_type;location;lat;lon;timestamp;pressure;altitude;pressure_sealevel;temperature;humidity
47897;BME280;39629;51.400;5.494;2022-07-21T00:03:19;101619.94;;;20.91;89.21
47897;BME280;39629;51.400;5.494;2022-07-21T00:08:22;101623.09;;;20.95;89.50
47897;BME280;39629;51.400;5.494;2022-07-21T00:13:24;101614.91;;;20.97;89.08
47897;BME280;39629;51.400;5.494;2022-07-21T00:18:26;101615.09;;;20.87;89.84
47897;BME280;39629;51.400;5.494;2022-07-21T00:23:29;101620.91;;;20.90;90.21
47897;BME280;39629;51.400;5.494;2022-07-21T00:28:31;101628.16;;;20.82;91.25
47897;BME280;39629;51.400;5.494;2022-07-21T00:33:33;101625.59;;;20.97;88.99
47897;BME280;39629;51.400;5.494;2022-07-21T00:38:36;101619.50;;;20.71;90.88
47897;BME280;39629;51.400;5.494;2022-07-21T00:43:38;101611.13;;;20.75;90.97
47897;BME280;39629;51.400;5.494;2022-07-21T00:48:40;101618.13;;;20.76;91.29
47897;BME280;39629;51.400;5.494;2022-07-21T00:53:43;101605.13;;;20.72;91.25
47897;BME280;39629;51.400;5.494;2022-07-21T00:58:45;101605.81;;;20.66;92.01
47897;BME280;39629;51.400;5.494;2022-07-21T01:03:46;101605.56;;;20.37;93.18
47897;BME280;39629;51.400;5.494;2022-07-21T01:08:50;101609.06;;;20.45;93.24
47897;BME280;39629;51.400;5.494;2022-07-21T01:13:51;101607.91;;;20.32;94.58
47897;BME280;39629;51.400;5.494;2022-07-21T01:18:53;101603.69;;;20.54;92.58
47897;BME280;39629;51.400;5.494;2022-07-21T01:23:57;101595.72;;;20.37;93.22
47897;BME280;39629;51.400;5.494;2022-07-21T01:28:59;101601.06;;;20.21;95.01
47897;BME280;39629;51.400;5.494;2022-07-21T01:34:00;101601.88;;;20.46;93.34
47897;BME280;39629;51.400;5.494;2022-07-21T01:39:04;101601.03;;;20.54;92.92
47897;BME280;39629;51.400;5.494;2022-07-21T01:44:23;101596.53;;;20.46;93.29
47897;BME280;39629;51.400;5.494;2022-07-21T01:49:25;101586.66;;;20.38;93.51
47897;BME280;39629;51.400;5.494;2022-07-21T01:54:28;101596.22;;;20.24;94.78
47897;BME280;39629;51.400;5.494;2022-07-21T01:59:30;101576.47;;;20.42;92.99
47897;BME280;39629;51.400;5.494;2022-07-21T02:04:31;101582.53;;;20.19;94.85
47897;BME280;39629;51.400;5.494;2022-07-21T02:09:36;101587.19;;;20.34;94.59
47897;BME280;39629;51.400;5.494;2022-07-21T02:14:37;101587.69;;;20.37;94.86
47897;BME280;39629;51.400;5.494;2022-07-21T02:19:39;101577.63;;;20.39;94.51
47897;BME280;39629;51.400;5.494;2022-07-21T02:24:42;101571.63;;;20.45;94.50
47897;BME280;39629;51.400;5.494;2022-07-21T02:29:44;101577.59;;;20.56;92.93
47897;BME280;39629;51.400;5.494;2022-07-21T02:34:45;101583.47;;;20.51;94.38
47897;BME280;39629;51.400;5.494;2022-07-21T02:39:49;101568.44;;;20.50;93.85
47897;BME280;39629;51.400;5.494;2022-07-21T02:44:50;101582.13;;;20.47;93.20
47897;BME280;39629;51.400;5.494;2022-07-21T02:49:52;101580.50;;;20.38;94.47
47897;BME280;39629;51.400;5.494;2022-07-21T02:54:55;101573.31;;;20.38;93.78
47897;BME280;39629;51.400;5.494;2022-07-21T02:59:57;101578.66;;;20.38;94.06
47897;BME280;39629;51.400;5.494;2022-07-21T03:04:59;101571.53;;;20.70;92.12
47897;BME280;39629;51.400;5.494;2022-07-21T03:10:02;101576.97;;;20.54;93.39
47897;BME280;39629;51.400;5.494;2022-07-21T03:15:04;101574.00;;;20.32;96.63
47897;BME280;39629;51.400;5.494;2022-07-21T03:20:06;101572.63;;;20.36;95.56
47897;BME280;39629;51.400;5.494;2022-07-21T03:25:09;101580.69;;;20.28;95.03
47897;BME280;39629;51.400;5.494;2022-07-21T03:30:12;101566.94;;;20.39;94.58
47897;BME280;39629;51.400;5.494;2022-07-21T03:35:14;101571.28;;;20.48;94.39
47897;BME280;39629;51.400;5.494;2022-07-21T03:40:19;101577.13;;;20.44;94.42
47897;BME280;39629;51.400;5.494;2022-07-21T03:45:24;101578.66;;;20.38;96.02
47897;BME280;39629;51.400;5.494;2022-07-21T03:50:26;101583.47;;;20.51;94.59
47897;BME280;39629;51.400;5.494;2022-07-21T03:55:30;101574.84;;;20.24;95.55
47897;BME280;39629;51.400;5.494;2022-07-21T04:00:34;101584.34;;;20.35;95.56
47897;BME280;39629;51.400;5.494;2022-07-21T04:05:38;101599.22;;;20.30;95.68
47897;BME280;39629;51.400;5.494;2022-07-21T04:10:43;101582.66;;;20.42;95.84
47897;BME280;39629;51.400;5.494;2022-07-21T04:15:44;101588.03;;;20.26;95.59
47897;BME280;39629;51.400;5.494;2022-07-21T04:20:46;101579.69;;;20.21;95.39
47897;BME280;39629;51.400;5.494;2022-07-21T04:25:49;101581.00;;;20.25;94.80
47897;BME280;39629;51.400;5.494;2022-07-21T04:30:50;101574.84;;;20.24;95.38
47897;BME280;39629;51.400;5.494;2022-07-21T04:35:52;101576.34;;;20.27;95.37
47897;BME280;39629;51.400;5.494;2022-07-21T04:40:55;101579.63;;;20.54;93.56
47897;BME280;39629;51.400;5.494;2022-07-21T04:45:56;101578.47;;;20.48;94.30
47897;BME280;39629;51.400;5.494;2022-07-21T04:50:58;101585.50;;;20.41;93.11
47897;BME280;39629;51.400;5.494;2022-07-21T04:56:01;101582.47;;;20.44;93.31
47897;BME280;39629;51.400;5.494;2022-07-21T05:01:02;101580.16;;;20.33;94.37
47897;BME280;39629;51.400;5.494;2022-07-21T05:06:04;101581.19;;;20.32;93.99
47897;BME280;39629;51.400;5.494;2022-07-21T05:11:07;101588.50;;;20.46;92.96
47897;BME280;39629;51.400;5.494;2022-07-21T05:16:09;101584.28;;;20.60;91.78
47897;BME280;39629;51.400;5.494;2022-07-21T05:21:10;101580.44;;;20.62;92.33
47897;BME280;39629;51.400;5.494;2022-07-21T05:26:13;101588.69;;;20.84;91.47
47897;BME280;39629;51.400;5.494;2022-07-21T05:31:15;101585.63;;;20.56;92.82
47897;BME280;39629;51.400;5.494;2022-07-21T05:36:17;101584.56;;;20.73;91.82
47897;BME280;39629;51.400;5.494;2022-07-21T05:41:20;101585.63;;;20.95;89.96
47897;BME280;39629;51.400;5.494;2022-07-21T05:46:22;101579.63;;;20.93;90.48
47897;BME280;39629;51.400;5.494;2022-07-21T05:51:24;101580.22;;;20.72;92.12
47897;BME280;39629;51.400;5.494;2022-07-21T05:56:27;101573.19;;;20.79;90.45
47897;BME280;39629;51.400;5.494;2022-07-21T06:01:28;101571.25;;;20.96;90.76
47897;BME280;39629;51.400;5.494;2022-07-21T06:06:31;101577.63;;;20.95;89.84
47897;BME280;39629;51.400;5.494;2022-07-21T06:11:34;101586.38;;;20.81;90.41
47897;BME280;39629;51.400;5.494;2022-07-21T06:16:36;101582.13;;;21.03;89.84
47897;BME280;39629;51.400;5.494;2022-07-21T06:21:37;101587.59;;;21.09;89.63
47897;BME280;39629;51.400;5.494;2022-07-21T06:26:42;101589.22;;;21.19;88.99
47897;BME280;39629;51.400;5.494;2022-07-21T06:31:43;101587.25;;;21.12;89.00
47897;BME280;39629;51.400;5.494;2022-07-21T06:36:45;101592.28;;;21.07;88.59
47897;BME280;39629;51.400;5.494;2022-07-21T06:41:48;101596.50;;;21.33;87.89
47897;BME280;39629;51.400;5.494;2022-07-21T06:46:50;101603.66;;;21.64;86.92
47897;BME280;39629;51.400;5.494;2022-07-21T06:51:52;101590.69;;;21.75;84.91
47897;BME280;39629;51.400;5.494;2022-07-21T06:56:55;101593.00;;;21.55;85.32
47897;BME280;39629;51.400;5.494;2022-07-21T07:01:57;101601.34;;;21.60;85.60
47897;BME280;39629;51.400;5.494;2022-07-21T07:06:59;101609.19;;;21.39;86.88
47897;BME280;39629;51.400;5.494;2022-07-21T07:12:02;101618.28;;;21.76;85.56
47897;BME280;39629;51.400;5.494;2022-07-21T07:17:04;101620.19;;;21.44;86.86
47897;BME280;39629;51.400;5.494;2022-07-21T07:22:06;101622.34;;;21.49;86.84
47897;BME280;39629;51.400;5.494;2022-07-21T07:27:09;101612.72;;;21.86;85.03
47897;BME280;39629;51.400;5.494;2022-07-21T07:32:10;101613.06;;;21.82;85.23
47897;BME280;39629;51.400;5.494;2022-07-21T07:37:12;101612.25;;;21.82;85.60
47897;BME280;39629;51.400;5.494;2022-07-21T07:42:15;101607.47;;;21.69;87.51
47897;BME280;39629;51.400;5.494;2022-07-21T07:47:16;101605.63;;;21.70;90.33
47897;BME280;39629;51.400;5.494;2022-07-21T07:52:18;101604.38;;;21.57;92.42
47897;BME280;39629;51.400;5.494;2022-07-21T07:57:21;101613.94;;;21.29;94.67
47897;BME280;39629;51.400;5.494;2022-07-21T08:02:23;101620.41;;;21.03;98.53
47897;BME280;39629;51.400;5.494;2022-07-21T08:07:25;101619.19;;;21.14;97.68
47897;BME280;39629;51.400;5.494;2022-07-21T08:12:28;101628.78;;;20.92;99.12
47897;BME280;39629;51.400;5.494;2022-07-21T08:17:30;101619.78;;;20.85;100.00
47897;BME280;39629;51.400;5.494;2022-07-21T08:22:32;101627.16;;;20.83;100.00
47897;BME280;39629;51.400;5.494;2022-07-21T08:27:35;101636.22;;;20.74;100.00
47897;BME280;39629;51.400;5.494;2022-07-21T08:32:38;101628.72;;;20.61;100.00
47897;BME280;39629;51.400;5.494;2022-07-21T08:37:40;101630.94;;;20.33;100.00
47897;BME280;39629;51.400;5.494;2022-07-21T08:42:43;101619.53;;;20.55;100.00
47897;BME280;39629;51.400;5.494;2022-07-21T08:47:46;101631.97;;;20.23;100.00
47897;BME280;39629;51.400;5.494;2022-07-21T08:52:48;101624.41;;;20.52;100.00
47897;BME280;39629;51.400;5.494;2022-07-21T08:57:51;101625.59;;;20.33;100.00
47897;BME280;39629;51.400;5.494;2022-07-21T09:03:08;101631.13;;;20.23;100.00
47897;BME280;39629;51.400;5.494;2022-07-21T09:08:10;101628.41;;;20.47;100.00
47897;BME280;39629;51.400;5.494;2022-07-21T09:13:13;101631.28;;;20.38;100.00
47897;BME280;39629;51.400;5.494;2022-07-21T09:18:15;101630.91;;;20.57;100.00
47897;BME280;39629;51.400;5.494;2022-07-21T09:23:18;101639.28;;;20.54;100.00
47897;BME280;39629;51.400;5.494;2022-07-21T09:28:22;101633.56;;;20.74;100.00
47897;BME280;39629;51.400;5.494;2022-07-21T09:33:27;101648.56;;;20.83;100.00
47897;BME280;39629;51.400;5.494;2022-07-21T09:38:35;101640.16;;;20.94;100.00
47897;BME280;39629;51.400;5.494;2022-07-21T09:43:41;101644.72;;;20.77;100.00
47897;BME280;39629;51.400;5.494;2022-07-21T09:48:44;101650.66;;;20.95;100.00
47897;BME280;39629;51.400;5.494;2022-07-21T09:53:51;101652.53;;;20.95;100.00
47897;BME280;39629;51.400;5.494;2022-07-21T09:58:55;101656.34;;;20.37;100.00
47897;BME280;39629;51.400;5.494;2022-07-21T10:03:59;101665.69;;;20.41;100.00
47897;BME280;39629;51.400;5.494;2022-07-21T10:09:03;101668.53;;;20.23;100.00
47897;BME280;39629;51.400;5.494;2022-07-21T10:14:08;101675.41;;;20.25;100.00
47897;BME280;39629;51.400;5.494;2022-07-21T10:19:16;101674.88;;;20.38;100.00
47897;BME280;39629;51.400;5.494;2022-07-21T10:24:20;101680.72;;;20.42;100.00
47897;BME280;39629;51.400;5.494;2022-07-21T10:29:54;101682.78;;;20.87;100.00
47897;BME280;39629;51.400;5.494;2022-07-21T10:34:58;101686.59;;;21.01;100.00
47897;BME280;39629;51.400;5.494;2022-07-21T10:39:59;101708.09;;;20.68;100.00
47897;BME280;39629;51.400;5.494;2022-07-21T10:45:19;101704.28;;;20.46;100.00
47897;BME280;39629;51.400;5.494;2022-07-21T10:50:31;101709.28;;;20.58;100.00
47897;BME280;39629;51.400;5.494;2022-07-21T10:55:35;101705.38;;;20.85;100.00
47897;BME280;39629;51.400;5.494;2022-07-21T11:00:38;101705.69;;;20.90;100.00
47897;BME280;39629;51.400;5.494;2022-07-21T11:06:15;101708.75;;;20.70;100.00
47897;BME280;39629;51.400;5.494;2022-07-21T11:11:18;101708.44;;;20.41;100.00
47897;BME280;39629;51.400;5.494;2022-07-21T11:16:22;101710.13;;;20.42;100.00
47897;BME280;39629;51.400;5.494;2022-07-21T11:21:23;101717.63;;;20.30;100.00
47897;BME280;39629;51.400;5.494;2022-07-21T11:26:25;101718.47;;;20.31;100.00
47897;BME280;39629;51.400;5.494;2022-07-21T11:31:28;101722.81;;;20.15;100.00
47897;BME280;39629;51.400;5.494;2022-07-21T11:36:31;101718.16;;;20.25;100.00
47897;BME280;39629;51.400;5.494;2022-07-21T11:41:33;101729.84;;;20.33;100.00
47897;BME280;39629;51.400;5.494;2022-07-21T11:46:48;101737.34;;;20.21;100.00
47897;BME280;39629;51.400;5.494;2022-07-21T11:51:52;101742.03;;;20.35;100.00
47897;BME280;39629;51.400;5.494;2022-07-21T11:56:56;101735.97;;;20.00;100.00
47897;BME280;39629;51.400;5.494;2022-07-21T12:02:02;101739.28;;;20.11;100.00
47897;BME280;39629;51.400;5.494;2022-07-21T12:07:07;101741.09;;;19.94;100.00
47897;BME280;39629;51.400;5.494;2022-07-21T12:12:11;101749.09;;;19.77;100.00
47897;BME280;39629;51.400;5.494;2022-07-21T12:17:16;101737.06;;;19.73;100.00
47897;BME280;39629;51.400;5.494;2022-07-21T12:22:32;101748.06;;;19.70;100.00
47897;BME280;39629;51.400;5.494;2022-07-21T12:27:36;101743.22;;;19.74;100.00
47897;BME280;39629;51.400;5.494;2022-07-21T12:32:45;101742.63;;;19.88;100.00
47897;BME280;39629;51.400;5.494;2022-07-21T12:37:59;101746.72;;;20.17;100.00
47897;BME280;39629;51.400;5.494;2022-07-21T12:43:10;101753.19;;;20.31;100.00
47897;BME280;39629;51.400;5.494;2022-07-21T12:48:14;101749.91;;;20.37;100.00
47897;BME280;39629;51.400;5.494;2022-07-21T12:53:16;101752.88;;;20.66;100.00
47897;BME280;39629;51.400;5.494;2022-07-21T12:58:18;101756.22;;;20.68;100.00
47897;BME280;39629;51.400;5.494;2022-07-21T13:03:21;101751.38;;;20.56;100.00
47897;BME280;39629;51.400;5.494;2022-07-21T13:08:22;101750.88;;;20.27;100.00
47897;BME280;39629;51.400;5.494;2022-07-21T13:13:24;101754.91;;;20.32;100.00
47897;BME280;39629;51.400;5.494;2022-07-21T13:18:28;101757.69;;;20.14;100.00
47897;BME280;39629;51.400;5.494;2022-07-21T13:23:29;101757.91;;;20.37;100.00
47897;BME280;39629;51.400;5.494;2022-07-21T13:28:32;101766.75;;;20.45;100.00
47897;BME280;39629;51.400;5.494;2022-07-21T13:33:36;101755.88;;;20.80;100.00
47897;BME280;39629;51.400;5.494;2022-07-21T13:38:38;101766.09;;;20.68;100.00
47897;BME280;39629;51.400;5.494;2022-07-21T13:43:40;101766.88;;;20.93;100.00
47897;BME280;39629;51.400;5.494;2022-07-21T13:48:43;101765.75;;;20.71;100.00
47897;BME280;39629;51.400;5.494;2022-07-21T13:53:46;101769.56;;;20.85;100.00
47897;BME280;39629;51.400;5.494;2022-07-21T13:58:48;101773.22;;;21.00;100.00
47897;BME280;39629;51.400;5.494;2022-07-21T14:03:51;101771.41;;;20.84;100.00
47897;BME280;39629;51.400;5.494;2022-07-21T14:08:53;101772.63;;;20.74;100.00
47897;BME280;39629;51.400;5.494;2022-07-21T14:13:55;101772.56;;;20.98;100.00
47897;BME280;39629;51.400;5.494;2022-07-21T14:18:58;101775.09;;;20.91;100.00
47897;BME280;39629;51.400;5.494;2022-07-21T14:24:00;101774.06;;;21.09;100.00
47897;BME280;39629;51.400;5.494;2022-07-21T14:29:20;101780.25;;;20.85;100.00
47897;BME280;39629;51.400;5.494;2022-07-21T14:34:23;101785.47;;;20.62;100.00
47897;BME280;39629;51.400;5.494;2022-07-21T14:39:24;101792.97;;;20.42;100.00
47897;BME280;39629;51.400;5.494;2022-07-21T14:44:26;101801.50;;;20.37;100.00
47897;BME280;39629;51.400;5.494;2022-07-21T14:49:29;101800.78;;;20.19;100.00
47897;BME280;39629;51.400;5.494;2022-07-21T14:54:30;101804.66;;;20.24;100.00
47897;BME280;39629;51.400;5.494;2022-07-21T14:59:32;101817.34;;;20.22;100.00
47897;BME280;39629;51.400;5.494;2022-07-21T15:04:35;101812.44;;;20.10;100.00
47897;BME280;39629;51.400;5.494;2022-07-21T15:09:37;101812.63;;;20.08;100.00
47897;BME280;39629;51.400;5.494;2022-07-21T15:14:39;101818.69;;;19.84;100.00
47897;BME280;39629;51.400;5.494;2022-07-21T15:19:42;101823.03;;;19.85;100.00
47897;BME280;39629;51.400;5.494;2022-07-21T15:24:43;101810.75;;;20.00;100.00
47897;BME280;39629;51.400;5.494;2022-07-21T15:29:45;101811.56;;;19.93;100.00
47897;BME280;39629;51.400;5.494;2022-07-21T15:34:48;101814.97;;;20.11;100.00
47897;BME280;39629;51.400;5.494;2022-07-21T15:39:50;101827.97;;;20.06;100.00
47897;BME280;39629;51.400;5.494;2022-07-21T15:44:52;101821.13;;;20.03;100.00
47897;BME280;39629;51.400;5.494;2022-07-21T15:49:55;101814.59;;;20.06;100.00
47897;BME280;39629;51.400;5.494;2022-07-21T15:54:57;101810.94;;;20.07;100.00
47897;BME280;39629;51.400;5.494;2022-07-21T15:59:59;101821.81;;;20.14;100.00
47897;BME280;39629;51.400;5.494;2022-07-21T16:05:02;101818.91;;;19.99;100.00
47897;BME280;39629;51.400;5.494;2022-07-21T16:10:04;101828.66;;;20.08;100.00
47897;BME280;39629;51.400;5.494;2022-07-21T16:15:07;101829.56;;;20.33;100.00
47897;BME280;39629;51.400;5.494;2022-07-21T16:20:11;101835.28;;;20.04;100.00
47897;BME280;39629;51.400;5.494;2022-07-21T16:25:15;101835.44;;;19.94;100.00
47897;BME280;39629;51.400;5.494;2022-07-21T16:30:18;101836.69;;;20.16;100.00
47897;BME280;39629;51.400;5.494;2022-07-21T16:35:21;101839.06;;;19.77;100.00
47897;BME280;39629;51.400;5.494;2022-07-21T16:40:23;101841.63;;;19.95;100.00
47897;BME280;39629;51.400;5.494;2022-07-21T16:45:25;101846.63;;;19.98;100.00
47897;BME280;39629;51.400;5.494;2022-07-21T16:50:28;101846.69;;;19.72;100.00
47897;BME280;39629;51.400;5.494;2022-07-21T16:55:29;101856.47;;;19.55;100.00
47897;BME280;39629;51.400;5.494;2022-07-21T17:00:31;101863.50;;;19.64;100.00
47897;BME280;39629;51.400;5.494;2022-07-21T17:05:34;101871.56;;;19.72;100.00
47897;BME280;39629;51.400;5.494;2022-07-21T17:10:35;101867.47;;;19.26;100.00
47897;BME280;39629;51.400;5.494;2022-07-21T17:15:37;101867.03;;;19.38;100.00
47897;BME280;39629;51.400;5.494;2022-07-21T17:20:40;101868.19;;;19.36;100.00
47897;BME280;39629;51.400;5.494;2022-07-21T17:25:41;101876.22;;;19.18;100.00
47897;BME280;39629;51.400;5.494;2022-07-21T17:30:43;101885.81;;;19.29;100.00
47897;BME280;39629;51.400;5.494;2022-07-21T17:35:46;101886.03;;;19.18;100.00
47897;BME280;39629;51.400;5.494;2022-07-21T17:40:48;101888.31;;;19.30;100.00
47897;BME280;39629;51.400;5.494;2022-07-21T17:45:50;101891.91;;;19.21;100.00
47897;BME280;39629;51.400;5.494;2022-07-21T17:50:53;101904.28;;;19.04;100.00
47897;BME280;39629;51.400;5.494;2022-07-21T17:55:54;101898.41;;;19.01;100.00
47897;BME280;39629;51.400;5.494;2022-07-21T18:00:56;101902.84;;;18.92;100.00
47897;BME280;39629;51.400;5.494;2022-07-21T18:06:01;101908.69;;;18.96;100.00
47897;BME280;39629;51.400;5.494;2022-07-21T18:11:02;101916.09;;;18.84;100.00
47897;BME280;39629;51.400;5.494;2022-07-21T18:16:05;101915.22;;;19.19;100.00
47897;BME280;39629;51.400;5.494;2022-07-21T18:21:08;101915.78;;;19.23;100.00
47897;BME280;39629;51.400;5.494;2022-07-21T18:26:10;101914.19;;;19.12;100.00
47897;BME280;39629;51.400;5.494;2022-07-21T18:31:12;101911.97;;;19.25;100.00
47897;BME280;39629;51.400;5.494;2022-07-21T18:36:15;101909.84;;;18.93;100.00
47897;BME280;39629;51.400;5.494;2022-07-21T18:41:17;101921.44;;;18.84;100.00
47897;BME280;39629;51.400;5.494;2022-07-21T18:46:19;101934.97;;;19.08;100.00
47897;BME280;39629;51.400;5.494;2022-07-21T18:51:22;101926.53;;;18.95;100.00
47897;BME280;39629;51.400;5.494;2022-07-21T18:56:26;101934.69;;;19.11;100.00
47897;BME280;39629;51.400;5.494;2022-07-21T19:01:28;101942.25;;;18.80;100.00
47897;BME280;39629;51.400;5.494;2022-07-21T19:06:31;101943.13;;;18.71;100.00
47897;BME280;39629;51.400;5.494;2022-07-21T19:11:32;101942.00;;;18.91;100.00
47897;BME280;39629;51.400;5.494;2022-07-21T19:16:34;101948.81;;;18.58;100.00
47897;BME280;39629;51.400;5.494;2022-07-21T19:21:37;101948.84;;;18.76;100.00
47897;BME280;39629;51.400;5.494;2022-07-21T19:26:38;101959.09;;;18.53;100.00
47897;BME280;39629;51.400;5.494;2022-07-21T19:31:40;101968.50;;;18.75;100.00
47897;BME280;39629;51.400;5.494;2022-07-21T19:36:43;101978.94;;;18.41;100.00
47897;BME280;39629;51.400;5.494;2022-07-21T19:41:46;101987.78;;;18.41;100.00
47897;BME280;39629;51.400;5.494;2022-07-21T19:46:47;101993.81;;;18.43;100.00
47897;BME280;39629;51.400;5.494;2022-07-21T19:51:50;102001.09;;;18.41;100.00
47897;BME280;39629;51.400;5.494;2022-07-21T19:56:52;101999.31;;;18.32;100.00
47897;BME280;39629;51.400;5.494;2022-07-21T20:01:54;102000.00;;;18.34;100.00
47897;BME280;39629;51.400;5.494;2022-07-21T20:06:57;101998.56;;;18.40;100.00
47897;BME280;39629;51.400;5.494;2022-07-21T20:11:59;102005.69;;;18.12;100.00
47897;BME280;39629;51.400;5.494;2022-07-21T20:17:00;102018.75;;;18.42;100.00
47897;BME280;39629;51.400;5.494;2022-07-21T20:22:03;102022.50;;;18.12;100.00
47897;BME280;39629;51.400;5.494;2022-07-21T20:27:05;102005.50;;;17.76;100.00
47897;BME280;39629;51.400;5.494;2022-07-21T20:32:06;102011.97;;;18.11;100.00
47897;BME280;39629;51.400;5.494;2022-07-21T20:37:09;102003.38;;;18.26;100.00
47897;BME280;39629;51.400;5.494;2022-07-21T20:42:11;102005.53;;;18.13;100.00
47897;BME280;39629;51.400;5.494;2022-07-21T20:47:13;101998.13;;;17.97;100.00
47897;BME280;39629;51.400;5.494;2022-07-21T20:52:15;102003.03;;;18.02;100.00
47897;BME280;39629;51.400;5.494;2022-07-21T20:57:17;101998.59;;;17.93;100.00
47897;BME280;39629;51.400;5.494;2022-07-21T21:02:19;101998.94;;;18.08;100.00
47897;BME280;39629;51.400;5.494;2022-07-21T21:07:21;102015.47;;;18.21;100.00
47897;BME280;39629;51.400;5.494;2022-07-21T21:12:23;102007.31;;;18.32;100.00
47897;BME280;39629;51.400;5.494;2022-07-21T21:17:27;102019.22;;;18.28;100.00
47897;BME280;39629;51.400;5.494;2022-07-21T21:22:30;102022.91;;;18.17;100.00
47897;BME280;39629;51.400;5.494;2022-07-21T21:27:32;102023.03;;;18.16;100.00
47897;BME280;39629;51.400;5.494;2022-07-21T21:32:34;102024.72;;;18.17;100.00
47897;BME280;39629;51.400;5.494;2022-07-21T21:37:38;102023.88;;;18.16;100.00
47897;BME280;39629;51.400;5.494;2022-07-21T21:42:39;102020.25;;;18.08;100.00
47897;BME280;39629;51.400;5.494;2022-07-21T21:47:41;102028.06;;;18.29;100.00
47897;BME280;39629;51.400;5.494;2022-07-21T21:52:44;102033.03;;;18.04;100.00
47897;BME280;39629;51.400;5.494;2022-07-21T21:57:46;102034.88;;;17.94;100.00
47897;BME280;39629;51.400;5.494;2022-07-21T22:02:47;102031.78;;;17.98;100.00
47897;BME280;39629;51.400;5.494;2022-07-21T22:07:50;102033.28;;;18.11;100.00
47897;BME280;39629;51.400;5.494;2022-07-21T22:12:52;102029.19;;;17.59;100.00
47897;BME280;39629;51.400;5.494;2022-07-21T22:17:53;102036.44;;;17.87;100.00
47897;BME280;39629;51.400;5.494;2022-07-21T22:22:56;102036.28;;;17.88;100.00
47897;BME280;39629;51.400;5.494;2022-07-21T22:27:58;102038.44;;;17.75;100.00
47897;BME280;39629;51.400;5.494;2022-07-21T22:33:00;102033.66;;;17.78;100.00
47897;BME280;39629;51.400;5.494;2022-07-21T22:38:03;102033.22;;;17.73;100.00
47897;BME280;39629;51.400;5.494;2022-07-21T22:43:04;102033.75;;;17.96;100.00
47897;BME280;39629;51.400;5.494;2022-07-21T22:48:07;102031.06;;;17.96;100.00
47897;BME280;39629;51.400;5.494;2022-07-21T22:53:10;102029.28;;;17.87;100.00
47897;BME280;39629;51.400;5.494;2022-07-21T22:58:12;102024.25;;;17.74;100.00
47897;BME280;39629;51.400;5.494;2022-07-21T23:03:14;102027.94;;;17.64;100.00
47897;BME280;39629;51.400;5.494;2022-07-21T23:08:17;102028.91;;;17.53;100.00
47897;BME280;39629;51.400;5.494;2022-07-21T23:13:18;102022.44;;;17.75;100.00
47897;BME280;39629;51.400;5.494;2022-07-21T23:18:20;102019.25;;;17.62;100.00
47897;BME280;39629;51.400;5.494;2022-07-21T23:23:23;102020.91;;;17.63;100.00
47897;BME280;39629;51.400;5.494;2022-07-21T23:28:24;102023.84;;;17.59;100.00
47897;BME280;39629;51.400;5.494;2022-07-21T23:33:26;102018.97;;;17.55;100.00
47897;BME280;39629;51.400;5.494;2022-07-21T23:38:30;102019.53;;;17.39;100.00
47897;BME280;39629;51.400;5.494;2022-07-21T23:43:31;102022.16;;;17.49;100.00
47897;BME280;39629;51.400;5.494;2022-07-21T23:48:33;102015.97;;;17.77;100.00
47897;BME280;39629;51.400;5.494;2022-07-21T23:53:36;102017.00;;;17.67;100.00
47897;BME280;39629;51.400;5.494;2022-07-21T23:58:37;102010.41;;;17.61;100.00
